sensor_id;sensor_type;location;lat;lon;timestamp;pressure;altitude;pressure_sealevel;temperature;humidity
44988;BME280;35735;52.226;21.254;2022-07-29T00:03:17;100838.84;;;14.18;100.00
44988;BME280;35735;52.226;21.254;2022-07-29T00:08:17;100824.38;;;14.16;100.00
44988;BME280;35735;52.226;21.254;2022-07-29T00:13:18;100830.75;;;14.12;100.00
44988;BME280;35735;52.226;21.254;2022-07-29T00:18:19;100836.25;;;14.03;100.00
44988;BME280;35735;52.226;21.254;2022-07-29T00:23:19;100835.38;;;13.98;100.00
44988;BME280;35735;52.226;21.254;2022-07-29T00:28:20;100831.72;;;14.05;100.00
44988;BME280;35735;52.226;21.254;2022-07-29T00:33:20;100844.38;;;14.06;100.00
44988;BME280;35735;52.226;21.254;2022-07-29T00:38:21;100837.09;;;14.09;100.00
44988;BME280;35735;52.226;21.254;2022-07-29T00:43:21;100844.31;;;14.12;100.00
44988;BME280;35735;52.226;21.254;2022-07-29T00:48:22;100835.25;;;14.13;100.00
44988;BME280;35735;52.226;21.254;2022-07-29T00:53:23;100844.28;;;14.18;100.00
44988;BME280;35735;52.226;21.254;2022-07-29T00:58:24;100831.59;;;14.22;100.00
44988;BME280;35735;52.226;21.254;2022-07-29T01:03:25;100830.66;;;14.20;100.00
44988;BME280;35735;52.226;21.254;2022-07-29T01:08:25;100833.47;;;14.11;100.00
44988;BME280;35735;52.226;21.254;2022-07-29T01:13:26;100836.19;;;14.11;100.00
44988;BME280;35735;52.226;21.254;2022-07-29T01:18:33;100828.06;;;14.06;100.00
44988;BME280;35735;52.226;21.254;2022-07-29T01:40:03;100820.97;;;13.89;100.00
44988;BME280;35735;52.226;21.254;2022-07-29T01:45:56;100828.19;;;13.92;100.00
44988;BME280;35735;52.226;21.254;2022-07-29T01:51:04;100823.66;;;13.91;100.00
44988;BME280;35735;52.226;21.254;2022-07-29T01:56:08;100833.63;;;13.92;100.00
44988;BME280;35735;52.226;21.254;2022-07-29T02:01:09;100831.84;;;13.86;100.00
44988;BME280;35735;52.226;21.254;2022-07-29T02:06:15;100826.47;;;13.80;100.00
44988;BME280;35735;52.226;21.254;2022-07-29T02:11:17;100831.94;;;13.74;100.00
44988;BME280;35735;52.226;21.254;2022-07-29T02:16:21;100831.06;;;13.69;100.00
44988;BME280;35735;52.226;21.254;2022-07-29T02:21:24;100838.34;;;13.62;100.00
44988;BME280;35735;52.226;21.254;2022-07-29T02:26:25;100842.81;;;13.68;100.00
44988;BME280;35735;52.226;21.254;2022-07-29T02:31:30;100838.31;;;13.64;100.00
44988;BME280;35735;52.226;21.254;2022-07-29T02:36:33;100828.38;;;13.63;100.00
44988;BME280;35735;52.226;21.254;2022-07-29T02:46:53;100836.59;;;13.50;100.00
44988;BME280;35735;52.226;21.254;2022-07-29T02:52:02;100838.44;;;13.42;100.00
44988;BME280;35735;52.226;21.254;2022-07-29T02:57:11;100831.28;;;13.32;100.00
44988;BME280;35735;52.226;21.254;2022-07-29T03:02:16;100837.56;;;13.31;100.00
44988;BME280;35735;52.226;21.254;2022-07-29T03:07:18;100839.38;;;13.38;100.00
44988;BME280;35735;52.226;21.254;2022-07-29T03:12:20;100842.09;;;13.29;100.00
44988;BME280;35735;52.226;21.254;2022-07-29T03:17:21;100836.66;;;13.29;100.00
44988;BME280;35735;52.226;21.254;2022-07-29T03:22:21;100841.22;;;13.24;100.00
44988;BME280;35735;52.226;21.254;2022-07-29T03:27:22;100843.09;;;13.00;100.00
44988;BME280;35735;52.226;21.254;2022-07-29T03:32:23;100848.53;;;13.03;100.00
44988;BME280;35735;52.226;21.254;2022-07-29T03:37:26;100838.59;;;12.94;100.00
44988;BME280;35735;52.226;21.254;2022-07-29T03:42:30;100844.88;;;13.04;100.00
44988;BME280;35735;52.226;21.254;2022-07-29T03:47:35;100847.56;;;13.18;100.00
44988;BME280;35735;52.226;21.254;2022-07-29T03:52:37;100844.75;;;13.41;100.00
44988;BME280;35735;52.226;21.254;2022-07-29T03:57:39;100848.31;;;13.52;100.00
44988;BME280;35735;52.226;21.254;2022-07-29T04:02:40;100837.37;;;13.68;100.00
44988;BME280;35735;52.226;21.254;2022-07-29T04:07:43;100839.06;;;13.90;100.00
44988;BME280;35735;52.226;21.254;2022-07-29T04:12:45;100845.19;;;14.19;100.00
44988;BME280;35735;52.226;21.254;2022-07-29T04:17:45;100841.31;;;14.48;100.00
44988;BME280;35735;52.226;21.254;2022-07-29T04:22:46;100835.69;;;14.69;100.00
44988;BME280;35735;52.226;21.254;2022-07-29T04:27:46;100837.31;;;14.87;100.00
44988;BME280;35735;52.226;21.254;2022-07-29T04:32:47;100843.31;;;15.18;100.00
44988;BME280;35735;52.226;21.254;2022-07-29T04:37:48;100845.53;;;15.57;100.00
44988;BME280;35735;52.226;21.254;2022-07-29T04:42:48;100841.34;;;15.95;100.00
44988;BME280;35735;52.226;21.254;2022-07-29T04:47:49;100833.69;;;16.20;100.00
44988;BME280;35735;52.226;21.254;2022-07-29T04:52:50;100844.13;;;16.46;100.00
44988;BME280;35735;52.226;21.254;2022-07-29T04:57:50;100846.44;;;16.71;100.00
44988;BME280;35735;52.226;21.254;2022-07-29T05:02:51;100851.19;;;17.08;100.00
44988;BME280;35735;52.226;21.254;2022-07-29T05:07:52;100851.59;;;17.33;100.00
44988;BME280;35735;52.226;21.254;2022-07-29T05:12:52;100853.56;;;17.67;100.00
44988;BME280;35735;52.226;21.254;2022-07-29T05:17:53;100864.13;;;17.84;100.00
44988;BME280;35735;52.226;21.254;2022-07-29T05:22:58;100859.75;;;18.18;100.00
44988;BME280;35735;52.226;21.254;2022-07-29T05:27:59;100857.66;;;18.27;100.00
44988;BME280;35735;52.226;21.254;2022-07-29T05:32:59;100862.50;;;18.52;100.00
44988;BME280;35735;52.226;21.254;2022-07-29T05:38:00;100861.81;;;18.78;100.00
44988;BME280;35735;52.226;21.254;2022-07-29T05:43:00;100866.09;;;19.23;100.00
44988;BME280;35735;52.226;21.254;2022-07-29T05:48:01;100861.19;;;19.64;100.00
44988;BME280;35735;52.226;21.254;2022-07-29T05:53:01;100861.47;;;20.14;99.99
44988;BME280;35735;52.226;21.254;2022-07-29T05:58:02;100861.41;;;20.44;98.57
44988;BME280;35735;52.226;21.254;2022-07-29T06:03:03;100855.50;;;20.57;96.48
44988;BME280;35735;52.226;21.254;2022-07-29T06:08:04;100859.50;;;20.73;96.28
44988;BME280;35735;52.226;21.254;2022-07-29T06:13:04;100844.75;;;20.77;94.35
44988;BME280;35735;52.226;21.254;2022-07-29T06:18:05;100852.78;;;20.83;93.70
44988;BME280;35735;52.226;21.254;2022-07-29T06:23:06;100850.47;;;20.96;93.79
44988;BME280;35735;52.226;21.254;2022-07-29T06:28:06;100852.25;;;21.48;93.24
44988;BME280;35735;52.226;21.254;2022-07-29T06:33:07;100851.84;;;21.82;91.03
44988;BME280;35735;52.226;21.254;2022-07-29T06:38:08;100855.00;;;21.71;90.78
44988;BME280;35735;52.226;21.254;2022-07-29T06:43:09;100860.69;;;22.12;90.14
44988;BME280;35735;52.226;21.254;2022-07-29T06:48:10;100855.09;;;22.37;88.98
44988;BME280;35735;52.226;21.254;2022-07-29T06:53:10;100842.72;;;22.48;88.33
44988;BME280;35735;52.226;21.254;2022-07-29T06:58:11;100842.22;;;22.81;88.11
44988;BME280;35735;52.226;21.254;2022-07-29T07:03:11;100844.34;;;22.94;85.42
44988;BME280;35735;52.226;21.254;2022-07-29T07:08:12;100850.34;;;23.04;86.25
44988;BME280;35735;52.226;21.254;2022-07-29T07:13:13;100853.59;;;23.35;84.81
44988;BME280;35735;52.226;21.254;2022-07-29T07:18:14;100851.97;;;23.68;84.39
44988;BME280;35735;52.226;21.254;2022-07-29T07:23:15;100848.69;;;23.60;83.83
44988;BME280;35735;52.226;21.254;2022-07-29T07:28:16;100851.47;;;23.79;82.60
44988;BME280;35735;52.226;21.254;2022-07-29T07:33:17;100852.56;;;23.56;81.87
44988;BME280;35735;52.226;21.254;2022-07-29T07:38:17;100844.53;;;23.52;82.13
44988;BME280;35735;52.226;21.254;2022-07-29T07:43:18;100857.56;;;23.67;80.60
44988;BME280;35735;52.226;21.254;2022-07-29T07:48:18;100849.91;;;23.74;79.57
44988;BME280;35735;52.226;21.254;2022-07-29T07:53:19;100863.50;;;23.97;78.80
44988;BME280;35735;52.226;21.254;2022-07-29T07:58:19;100847.19;;;23.93;78.77
44988;BME280;35735;52.226;21.254;2022-07-29T08:03:20;100861.34;;;24.04;77.37
44988;BME280;35735;52.226;21.254;2022-07-29T08:08:20;100856.06;;;23.99;78.92
44988;BME280;35735;52.226;21.254;2022-07-29T08:13:23;100853.66;;;24.47;79.33
44988;BME280;35735;52.226;21.254;2022-07-29T08:18:29;100857.78;;;24.92;76.95
44988;BME280;35735;52.226;21.254;2022-07-29T08:23:30;100852.75;;;25.18;77.43
44988;BME280;35735;52.226;21.254;2022-07-29T08:28:31;100856.38;;;25.19;73.99
44988;BME280;35735;52.226;21.254;2022-07-29T08:33:32;100861.25;;;25.13;73.52
44988;BME280;35735;52.226;21.254;2022-07-29T08:38:33;100862.00;;;24.65;72.91
44988;BME280;35735;52.226;21.254;2022-07-29T08:43:34;100850.87;;;24.47;73.71
44988;BME280;35735;52.226;21.254;2022-07-29T08:48:36;100853.87;;;24.62;72.59
44988;BME280;35735;52.226;21.254;2022-07-29T08:53:36;100853.00;;;24.78;71.85
44988;BME280;35735;52.226;21.254;2022-07-29T08:58:37;100855.28;;;24.88;70.52
44988;BME280;35735;52.226;21.254;2022-07-29T09:03:39;100856.41;;;24.66;70.49
44988;BME280;35735;52.226;21.254;2022-07-29T09:08:41;100862.25;;;24.41;69.42
44988;BME280;35735;52.226;21.254;2022-07-29T09:13:41;100862.25;;;24.41;69.51
44988;BME280;35735;52.226;21.254;2022-07-29T09:18:44;100853.72;;;24.65;70.49
44988;BME280;35735;52.226;21.254;2022-07-29T09:24:10;100837.00;;;25.03;69.32
44988;BME280;35735;52.226;21.254;2022-07-29T09:29:13;100834.25;;;25.54;67.06
44988;BME280;35735;52.226;21.254;2022-07-29T09:34:21;100835.62;;;25.78;67.93
44988;BME280;35735;52.226;21.254;2022-07-29T09:39:31;100850.16;;;25.82;62.53
44988;BME280;35735;52.226;21.254;2022-07-29T09:44:46;100852.06;;;25.48;62.45
44988;BME280;35735;52.226;21.254;2022-07-29T09:49:56;100831.34;;;25.22;64.31
44988;BME280;35735;52.226;21.254;2022-07-29T09:55:08;100832.00;;;25.44;62.94
44988;BME280;35735;52.226;21.254;2022-07-29T10:00:17;100827.66;;;25.56;63.92
44988;BME280;35735;52.226;21.254;2022-07-29T10:10:31;100824.69;;;25.59;62.94
44988;BME280;35735;52.226;21.254;2022-07-29T10:15:35;100808.59;;;25.34;62.51
44988;BME280;35735;52.226;21.254;2022-07-29T10:20:38;100811.84;;;24.91;62.67
44988;BME280;35735;52.226;21.254;2022-07-29T10:25:38;100811.69;;;24.59;64.10
44988;BME280;35735;52.226;21.254;2022-07-29T10:30:39;100807.53;;;24.32;63.93
44988;BME280;35735;52.226;21.254;2022-07-29T10:35:44;100806.81;;;24.46;64.91
44988;BME280;35735;52.226;21.254;2022-07-29T10:46:27;100792.44;;;24.58;64.10
44988;BME280;35735;52.226;21.254;2022-07-29T10:52:01;100798.47;;;24.47;64.08
44988;BME280;35735;52.226;21.254;2022-07-29T10:57:11;100791.44;;;24.59;63.35
44988;BME280;35735;52.226;21.254;2022-07-29T11:07:35;100785.19;;;24.55;63.54
44988;BME280;35735;52.226;21.254;2022-07-29T11:22:53;100782.56;;;25.05;61.80
44988;BME280;35735;52.226;21.254;2022-07-29T11:28:08;100775.13;;;24.89;62.94
44988;BME280;35735;52.226;21.254;2022-07-29T11:33:32;100778.12;;;24.85;61.57
44988;BME280;35735;52.226;21.254;2022-07-29T11:38:34;100772.53;;;24.86;60.97
44988;BME280;35735;52.226;21.254;2022-07-29T11:43:48;100772.50;;;25.04;62.69
44988;BME280;35735;52.226;21.254;2022-07-29T11:48:51;100773.81;;;24.96;61.42
44988;BME280;35735;52.226;21.254;2022-07-29T11:53:51;100758.66;;;24.70;62.40
44988;BME280;35735;52.226;21.254;2022-07-29T11:59:05;100756.47;;;24.59;62.99
44988;BME280;35735;52.226;21.254;2022-07-29T12:04:07;100761.09;;;24.76;62.81
44988;BME280;35735;52.226;21.254;2022-07-29T12:09:08;100753.78;;;24.93;62.64
44988;BME280;35735;52.226;21.254;2022-07-29T12:14:09;100748.50;;;25.22;61.34
44988;BME280;35735;52.226;21.254;2022-07-29T12:19:09;100743.53;;;25.28;62.51
44988;BME280;35735;52.226;21.254;2022-07-29T12:24:10;100746.44;;;25.43;61.43
44988;BME280;35735;52.226;21.254;2022-07-29T12:29:15;100754.09;;;25.38;60.58
44988;BME280;35735;52.226;21.254;2022-07-29T12:34:16;100749.44;;;25.38;59.65
44988;BME280;35735;52.226;21.254;2022-07-29T12:39:18;100740.06;;;25.41;59.66
44988;BME280;35735;52.226;21.254;2022-07-29T12:44:19;100745.16;;;25.32;60.23
44988;BME280;35735;52.226;21.254;2022-07-29T12:49:22;100737.53;;;25.20;59.21
44988;BME280;35735;52.226;21.254;2022-07-29T12:54:23;100724.87;;;25.16;59.32
44988;BME280;35735;52.226;21.254;2022-07-29T12:59:23;100729.50;;;24.82;59.75
44988;BME280;35735;52.226;21.254;2022-07-29T13:04:28;100718.41;;;24.66;60.66
44988;BME280;35735;52.226;21.254;2022-07-29T13:09:43;100726.62;;;24.68;61.12
44988;BME280;35735;52.226;21.254;2022-07-29T13:14:47;100719.22;;;24.51;60.86
44988;BME280;35735;52.226;21.254;2022-07-29T13:19:50;100718.97;;;24.55;61.83
44988;BME280;35735;52.226;21.254;2022-07-29T13:24:57;100724.25;;;24.60;61.35
44988;BME280;35735;52.226;21.254;2022-07-29T13:30:00;100709.13;;;24.67;61.17
44988;BME280;35735;52.226;21.254;2022-07-29T13:35:05;100707.25;;;24.85;60.54
44988;BME280;35735;52.226;21.254;2022-07-29T13:40:08;100702.19;;;24.93;59.75
44988;BME280;35735;52.226;21.254;2022-07-29T13:45:10;100708.09;;;25.03;59.34
44988;BME280;35735;52.226;21.254;2022-07-29T13:50:11;100693.56;;;25.00;58.97
44988;BME280;35735;52.226;21.254;2022-07-29T13:55:11;100692.13;;;24.92;58.97
44988;BME280;35735;52.226;21.254;2022-07-29T14:00:12;100691.88;;;24.97;59.46
44988;BME280;35735;52.226;21.254;2022-07-29T14:05:13;100694.72;;;24.95;59.10
44988;BME280;35735;52.226;21.254;2022-07-29T14:10:14;100686.16;;;24.84;59.26
44988;BME280;35735;52.226;21.254;2022-07-29T14:15:14;100683.72;;;24.78;59.15
44988;BME280;35735;52.226;21.254;2022-07-29T14:20:15;100686.66;;;24.75;59.51
44988;BME280;35735;52.226;21.254;2022-07-29T14:25:16;100678.22;;;24.78;59.41
44988;BME280;35735;52.226;21.254;2022-07-29T14:30:16;100670.87;;;24.77;59.16
44988;BME280;35735;52.226;21.254;2022-07-29T14:35:17;100671.34;;;24.69;58.47
44988;BME280;35735;52.226;21.254;2022-07-29T14:40:17;100678.22;;;24.60;58.82
44988;BME280;35735;52.226;21.254;2022-07-29T14:45:18;100650.13;;;24.52;58.78
44988;BME280;35735;52.226;21.254;2022-07-29T14:50:18;100659.72;;;24.45;58.90
44988;BME280;35735;52.226;21.254;2022-07-29T14:55:20;100649.84;;;24.41;58.18
44988;BME280;35735;52.226;21.254;2022-07-29T15:00:20;100654.88;;;24.33;58.60
44988;BME280;35735;52.226;21.254;2022-07-29T15:05:21;100641.72;;;24.20;58.68
44988;BME280;35735;52.226;21.254;2022-07-29T15:10:22;100649.78;;;24.08;58.63
44988;BME280;35735;52.226;21.254;2022-07-29T15:15:22;100638.81;;;23.89;59.56
44988;BME280;35735;52.226;21.254;2022-07-29T15:20:23;100639.88;;;23.86;59.72
44988;BME280;35735;52.226;21.254;2022-07-29T15:25:24;100628.03;;;23.84;59.85
44988;BME280;35735;52.226;21.254;2022-07-29T15:30:25;100626.00;;;23.88;59.82
44988;BME280;35735;52.226;21.254;2022-07-29T15:35:25;100618.22;;;23.96;60.01
44988;BME280;35735;52.226;21.254;2022-07-29T15:40:26;100615.97;;;24.04;59.55
44988;BME280;35735;52.226;21.254;2022-07-29T15:45:27;100616.94;;;24.03;59.46
44988;BME280;35735;52.226;21.254;2022-07-29T15:50:27;100608.00;;;23.98;59.14
44988;BME280;35735;52.226;21.254;2022-07-29T15:55:28;100604.53;;;23.94;58.88
44988;BME280;35735;52.226;21.254;2022-07-29T16:00:29;100599.34;;;23.88;59.45
44988;BME280;35735;52.226;21.254;2022-07-29T16:05:29;100582.63;;;23.91;59.08
44988;BME280;35735;52.226;21.254;2022-07-29T16:10:30;100591.16;;;23.86;58.96
44988;BME280;35735;52.226;21.254;2022-07-29T16:15:30;100589.53;;;23.82;59.03
44988;BME280;35735;52.226;21.254;2022-07-29T16:20:31;100595.47;;;23.73;58.80
44988;BME280;35735;52.226;21.254;2022-07-29T16:25:32;100589.56;;;23.63;59.32
44988;BME280;35735;52.226;21.254;2022-07-29T16:30:33;100590.94;;;23.55;59.63
44988;BME280;35735;52.226;21.254;2022-07-29T16:35:34;100590.50;;;23.45;60.12
44988;BME280;35735;52.226;21.254;2022-07-29T16:40:35;100578.91;;;23.38;60.11
44988;BME280;35735;52.226;21.254;2022-07-29T16:45:35;100596.87;;;23.28;60.31
44988;BME280;35735;52.226;21.254;2022-07-29T16:50:37;100596.50;;;23.17;60.76
44988;BME280;35735;52.226;21.254;2022-07-29T16:55:38;100600.38;;;23.12;60.22
44988;BME280;35735;52.226;21.254;2022-07-29T17:00:38;100596.97;;;23.07;60.63
44988;BME280;35735;52.226;21.254;2022-07-29T17:05:39;100606.19;;;23.06;60.82
44988;BME280;35735;52.226;21.254;2022-07-29T17:10:39;100609.75;;;23.08;60.89
44988;BME280;35735;52.226;21.254;2022-07-29T17:15:40;100604.31;;;23.07;60.94
44988;BME280;35735;52.226;21.254;2022-07-29T17:20:41;100608.97;;;23.05;60.98
44988;BME280;35735;52.226;21.254;2022-07-29T17:25:41;100605.56;;;23.00;61.31
44988;BME280;35735;52.226;21.254;2022-07-29T17:30:42;100600.41;;;22.92;61.37
44988;BME280;35735;52.226;21.254;2022-07-29T17:35:42;100607.19;;;22.85;61.64
44988;BME280;35735;52.226;21.254;2022-07-29T17:40:43;100601.84;;;22.82;61.83
44988;BME280;35735;52.226;21.254;2022-07-29T17:45:43;100610.94;;;22.84;62.07
44988;BME280;35735;52.226;21.254;2022-07-29T17:50:46;100611.06;;;22.81;62.10
44988;BME280;35735;52.226;21.254;2022-07-29T17:55:46;100613.31;;;22.72;62.24
44988;BME280;35735;52.226;21.254;2022-07-29T18:00:47;100621.75;;;22.68;62.85
44988;BME280;35735;52.226;21.254;2022-07-29T18:05:48;100621.03;;;22.64;63.28
44988;BME280;35735;52.226;21.254;2022-07-29T18:10:49;100609.50;;;22.56;63.72
44988;BME280;35735;52.226;21.254;2022-07-29T18:15:49;100614.44;;;22.48;64.68
44988;BME280;35735;52.226;21.254;2022-07-29T18:20:50;100618.72;;;22.34;65.67
44988;BME280;35735;52.226;21.254;2022-07-29T18:25:51;100617.34;;;22.24;66.55
44988;BME280;35735;52.226;21.254;2022-07-29T18:30:51;100610.34;;;22.17;67.17
44988;BME280;35735;52.226;21.254;2022-07-29T18:35:52;100608.81;;;22.10;67.80
44988;BME280;35735;52.226;21.254;2022-07-29T18:40:53;100609.38;;;21.97;68.44
44988;BME280;35735;52.226;21.254;2022-07-29T18:45:53;100612.88;;;21.80;68.93
44988;BME280;35735;52.226;21.254;2022-07-29T18:50:54;100613.25;;;21.71;69.55
44988;BME280;35735;52.226;21.254;2022-07-29T18:55:54;100616.47;;;21.60;70.19
44988;BME280;35735;52.226;21.254;2022-07-29T19:00:55;100622.47;;;21.48;70.76
44988;BME280;35735;52.226;21.254;2022-07-29T19:05:55;100626.66;;;21.35;71.11
44988;BME280;35735;52.226;21.254;2022-07-29T19:10:56;100629.97;;;21.21;71.56
44988;BME280;35735;52.226;21.254;2022-07-29T19:15:56;100634.28;;;21.04;71.78
44988;BME280;35735;52.226;21.254;2022-07-29T19:20:57;100642.19;;;20.90;72.23
44988;BME280;35735;52.226;21.254;2022-07-29T19:25:58;100642.59;;;20.79;72.49
44988;BME280;35735;52.226;21.254;2022-07-29T19:30:58;100637.66;;;20.65;72.57
44988;BME280;35735;52.226;21.254;2022-07-29T19:35:59;100643.56;;;20.53;72.83
44988;BME280;35735;52.226;21.254;2022-07-29T19:40:59;100650.34;;;20.43;73.19
44988;BME280;35735;52.226;21.254;2022-07-29T19:46:00;100637.44;;;20.21;73.46
44988;BME280;35735;52.226;21.254;2022-07-29T19:51:01;100630.50;;;20.11;73.92
44988;BME280;35735;52.226;21.254;2022-07-29T19:56:01;100630.91;;;20.00;74.31
44988;BME280;35735;52.226;21.254;2022-07-29T20:01:02;100629.41;;;19.91;74.60
44988;BME280;35735;52.226;21.254;2022-07-29T20:06:02;100632.38;;;19.84;74.94
44988;BME280;35735;52.226;21.254;2022-07-29T20:11:03;100629.03;;;19.75;75.17
44988;BME280;35735;52.226;21.254;2022-07-29T20:16:04;100636.56;;;19.67;75.39
44988;BME280;35735;52.226;21.254;2022-07-29T20:21:05;100645.91;;;19.61;75.69
44988;BME280;35735;52.226;21.254;2022-07-29T20:26:05;100648.16;;;19.49;75.97
44988;BME280;35735;52.226;21.254;2022-07-29T20:31:06;100650.25;;;19.40;76.31
44988;BME280;35735;52.226;21.254;2022-07-29T20:36:06;100648.62;;;19.35;76.59
44988;BME280;35735;52.226;21.254;2022-07-29T20:41:07;100636.22;;;19.23;76.82
44988;BME280;35735;52.226;21.254;2022-07-29T20:46:08;100632.84;;;19.15;77.15
44988;BME280;35735;52.226;21.254;2022-07-29T20:51:08;100632.25;;;19.05;77.51
44988;BME280;35735;52.226;21.254;2022-07-29T20:56:09;100627.97;;;18.96;77.72
44988;BME280;35735;52.226;21.254;2022-07-29T21:01:10;100626.34;;;18.89;78.12
44988;BME280;35735;52.226;21.254;2022-07-29T21:06:10;100619.19;;;18.85;78.27
44988;BME280;35735;52.226;21.254;2022-07-29T21:11:11;100613.87;;;18.79;78.47
44988;BME280;35735;52.226;21.254;2022-07-29T21:16:11;100621.22;;;18.77;78.77
44988;BME280;35735;52.226;21.254;2022-07-29T21:21:13;100621.50;;;18.67;78.82
44988;BME280;35735;52.226;21.254;2022-07-29T21:26:14;100621.78;;;18.58;79.16
44988;BME280;35735;52.226;21.254;2022-07-29T21:31:15;100618.31;;;18.53;79.41
44988;BME280;35735;52.226;21.254;2022-07-29T21:36:15;100606.53;;;18.51;79.63
44988;BME280;35735;52.226;21.254;2022-07-29T21:41:16;100605.69;;;18.47;79.77
44988;BME280;35735;52.226;21.254;2022-07-29T21:46:17;100598.66;;;18.39;80.04
44988;BME280;35735;52.226;21.254;2022-07-29T21:51:17;100604.31;;;18.32;80.31
44988;BME280;35735;52.226;21.254;2022-07-29T21:56:18;100609.06;;;18.26;80.43
44988;BME280;35735;52.226;21.254;2022-07-29T22:01:18;100609.25;;;18.20;80.71
44988;BME280;35735;52.226;21.254;2022-07-29T22:06:19;100604.78;;;18.15;80.98
44988;BME280;35735;52.226;21.254;2022-07-29T22:11:19;100605.03;;;18.08;81.31
44988;BME280;35735;52.226;21.254;2022-07-29T22:16:20;100599.97;;;17.92;81.93
44988;BME280;35735;52.226;21.254;2022-07-29T22:21:20;100603.88;;;17.82;82.28
44988;BME280;35735;52.226;21.254;2022-07-29T22:26:21;100603.94;;;17.79;82.64
44988;BME280;35735;52.226;21.254;2022-07-29T22:31:22;100592.44;;;17.68;82.99
44988;BME280;35735;52.226;21.254;2022-07-29T22:36:22;100589.09;;;17.56;83.43
44988;BME280;35735;52.226;21.254;2022-07-29T22:41:23;100580.06;;;17.54;83.86
44988;BME280;35735;52.226;21.254;2022-07-29T22:46:23;100579.34;;;17.46;83.98
44988;BME280;35735;52.226;21.254;2022-07-29T22:51:24;100581.16;;;17.46;84.13
44988;BME280;35735;52.226;21.254;2022-07-29T22:56:24;100580.19;;;17.48;84.35
44988;BME280;35735;52.226;21.254;2022-07-29T23:01:25;100580.25;;;17.47;84.37
44988;BME280;35735;52.226;21.254;2022-07-29T23:06:25;100577.56;;;17.45;84.52
44988;BME280;35735;52.226;21.254;2022-07-29T23:11:26;100573.06;;;17.44;84.65
44988;BME280;35735;52.226;21.254;2022-07-29T23:16:27;100564.94;;;17.41;84.74
44988;BME280;35735;52.226;21.254;2022-07-29T23:21:30;100574.91;;;17.42;84.72
44988;BME280;35735;52.226;21.254;2022-07-29T23:26:31;100572.16;;;17.42;84.72
44988;BME280;35735;52.226;21.254;2022-07-29T23:31:31;100559.41;;;17.44;84.73
44988;BME280;35735;52.226;21.254;2022-07-29T23:36:32;100558.44;;;17.45;84.74
44988;BME280;35735;52.226;21.254;2022-07-29T23:41:32;100551.16;;;17.46;84.76
44988;BME280;35735;52.226;21.254;2022-07-29T23:46:33;100552.00;;;17.49;84.70
44988;BME280;35735;52.226;21.254;2022-07-29T23:51:33;100542.84;;;17.50;84.63
44988;BME280;35735;52.226;21.254;2022-07-29T23:56:34;100551.03;;;17.50;84.71
